Time;durP1;ratioP1;P1;durP2;ratioP2;P2;SDS_P1;SDS_P2;PMS_P1;PMS_P2;Temp;Humidity;BMP_temperature;BMP_pressure;BME280_temperature;BME280_humidity;BME280_pressure;Samples;Min_cycle;Max_cycle;Signal;HPM_P1;HPM_P2
2023/07/27 00:01:49;;;;;;;;;;;18.50;75.10;;;;;;4975285;28;19930;-76
2023/07/27 00:04:16;;;;;;;;;;;18.40;75.10;;;;;;4979048;28;19933;-77
2023/07/27 00:06:42;;;;;;;;;;;18.50;75.10;;;;;;4983754;28;20012;-75
2023/07/27 00:09:09;;;;;;;;;;;18.40;75.20;;;;;;4977160;28;19949;-77
2023/07/27 00:11:37;;;;;;;;;;;18.40;75.30;;;;;;4991987;28;19929;-77
2023/07/27 00:14:03;;;;;;;;;;;18.40;75.40;;;;;;4984348;28;19934;-77
2023/07/27 00:16:30;;;;;;;;;;;18.40;75.30;;;;;;4990059;28;19930;-77
2023/07/27 00:18:56;;;;;;;;;;;18.40;75.50;;;;;;4984257;28;19933;-76
2023/07/27 00:21:23;;;;;;;;;;;18.40;75.50;;;;;;4984417;28;19937;-77
2023/07/27 00:23:49;;;;;;;;;;;18.40;75.60;;;;;;4982865;28;19937;-77
2023/07/27 00:26:16;;;;;;;;;;;18.30;75.70;;;;;;4983746;28;19936;-77
2023/07/27 00:28:44;;;;;;;;;;;18.30;75.70;;;;;;4986918;28;19937;-77
2023/07/27 00:31:11;;;;;;;;;;;18.30;75.80;;;;;;4989611;28;20328;-77
2023/07/27 00:33:37;;;;;;;;;;;18.30;76.50;;;;;;5000361;28;19937;-77
2023/07/27 00:36:04;;;;;;;;;;;18.30;75.90;;;;;;4993959;28;19933;-76
2023/07/27 00:38:30;;;;;;;;;;;18.20;75.80;;;;;;4984870;28;19973;-76
2023/07/27 00:40:57;;;;;;;;;;;18.30;76.00;;;;;;4984683;28;20384;-76
2023/07/27 00:43:24;;;;;;;;;;;18.20;75.90;;;;;;4986949;28;20447;-77
2023/07/27 00:45:52;;;;;;;;;;;18.20;76.00;;;;;;4980970;28;19930;-77
2023/07/27 00:48:19;;;;;;;;;;;18.10;76.00;;;;;;4986839;28;19929;-77
2023/07/27 00:50:46;;;;;;;;;;;18.10;76.10;;;;;;4989887;28;19929;-77
2023/07/27 00:53:14;;;;;;;;;;;18.10;76.10;;;;;;4985085;28;19938;-77
2023/07/27 00:55:40;;;;;;;;;;;18.10;76.10;;;;;;4986347;28;19942;-77
2023/07/27 00:58:07;;;;;;;;;;;18.10;76.20;;;;;;4982470;28;19944;-77
2023/07/27 01:00:33;;;;;;;;;;;18.10;76.20;;;;;;4984312;28;19929;-77
2023/07/27 01:03:03;;;;;;;;;;;18.00;76.30;;;;;;4985262;28;20540;-77
2023/07/27 01:05:30;;;;;;;;;;;18.00;76.40;;;;;;4988938;28;20456;-77
2023/07/27 01:07:56;;;;;;;;;;;18.00;76.40;;;;;;4984998;28;20374;-77
2023/07/27 01:10:26;;;;;;;;;;;18.00;76.40;;;;;;4985674;28;19926;-77
2023/07/27 01:12:55;;;;;;;;;;;18.00;76.50;;;;;;4985511;28;19929;-77
2023/07/27 01:15:23;;;;;;;;;;;17.90;76.40;;;;;;4983110;28;19988;-77
2023/07/27 01:17:51;;;;;;;;;;;17.90;76.40;;;;;;4985820;28;20032;-76
2023/07/27 01:20:24;;;;;;;;;;;17.90;76.50;;;;;;4983483;28;19930;-76
2023/07/27 01:22:57;;;;;;;;;;;17.90;76.50;;;;;;4983509;28;19935;-77
2023/07/27 01:25:35;;;;;;;;;;;17.90;76.60;;;;;;4984996;28;19929;-76
2023/07/27 01:28:07;;;;;;;;;;;17.90;76.70;;;;;;4984222;28;19937;-76
2023/07/27 01:30:46;;;;;;;;;;;17.80;76.70;;;;;;4981948;28;19929;-76
2023/07/27 01:33:14;;;;;;;;;;;17.80;76.70;;;;;;4981502;28;20392;-76
2023/07/27 01:35:44;;;;;;;;;;;17.80;76.80;;;;;;4988692;28;19933;-76
2023/07/27 01:38:11;;;;;;;;;;;17.80;76.80;;;;;;4983167;28;19937;-77
2023/07/27 01:40:38;;;;;;;;;;;17.70;76.90;;;;;;4983297;28;20603;-77
2023/07/27 01:43:04;;;;;;;;;;;17.70;76.90;;;;;;4980173;28;19930;-77
2023/07/27 01:45:31;;;;;;;;;;;17.70;77.00;;;;;;4983036;28;19930;-77
2023/07/27 01:48:00;;;;;;;;;;;17.70;77.10;;;;;;4986699;28;19934;-77
2023/07/27 01:50:28;;;;;;;;;;;17.70;77.20;;;;;;4988031;28;20434;-77
2023/07/27 01:52:55;;;;;;;;;;;17.70;77.20;;;;;;4981847;28;19930;-77
2023/07/27 01:55:23;;;;;;;;;;;17.70;77.20;;;;;;4985524;28;19937;-77
2023/07/27 01:57:50;;;;;;;;;;;17.60;77.30;;;;;;4983616;28;20017;-76
2023/07/27 02:00:17;;;;;;;;;;;17.60;77.30;;;;;;4982602;28;20387;-77
2023/07/27 02:02:44;;;;;;;;;;;17.60;77.40;;;;;;4983265;28;20387;-76
2023/07/27 02:05:13;;;;;;;;;;;17.60;77.40;;;;;;4985118;28;20327;-77
2023/07/27 02:07:40;;;;;;;;;;;17.60;77.50;;;;;;4983586;28;19980;-77
2023/07/27 02:10:07;;;;;;;;;;;17.60;77.70;;;;;;4981288;28;20335;-76
2023/07/27 02:12:38;;;;;;;;;;;17.60;77.70;;;;;;4985288;28;20366;-77
2023/07/27 02:15:06;;;;;;;;;;;17.50;77.70;;;;;;4987396;28;19938;-77
2023/07/27 02:17:37;;;;;;;;;;;17.50;77.80;;;;;;5006480;28;19929;-77
2023/07/27 02:20:06;;;;;;;;;;;17.50;77.80;;;;;;5002250;28;19936;-76
2023/07/27 02:22:34;;;;;;;;;;;17.50;77.90;;;;;;5001775;28;20020;-76
2023/07/27 02:25:01;;;;;;;;;;;17.50;78.00;;;;;;5001992;28;20306;-76
2023/07/27 02:27:28;;;;;;;;;;;17.50;78.00;;;;;;4996557;28;19933;-76
2023/07/27 02:29:54;;;;;;;;;;;17.50;78.10;;;;;;4999225;28;19929;-77
2023/07/27 02:32:21;;;;;;;;;;;17.40;78.10;;;;;;5000464;28;19933;-76
2023/07/27 02:34:47;;;;;;;;;;;17.40;78.20;;;;;;5001962;28;19929;-77
2023/07/27 02:37:14;;;;;;;;;;;17.40;78.30;;;;;;5003393;28;19937;-76
2023/07/27 02:39:41;;;;;;;;;;;17.40;78.30;;;;;;5000495;28;19936;-75
2023/07/27 02:42:07;;;;;;;;;;;17.40;78.50;;;;;;5002523;28;19936;-76
2023/07/27 02:44:34;;;;;;;;;;;17.40;78.50;;;;;;5000466;28;19992;-77
2023/07/27 02:47:00;;;;;;;;;;;17.40;78.50;;;;;;5004947;28;19933;-77
2023/07/27 02:49:27;;;;;;;;;;;17.40;78.60;;;;;;5002739;28;19933;-77
2023/07/27 02:51:53;;;;;;;;;;;17.30;78.60;;;;;;5001468;28;19930;-76
2023/07/27 02:54:20;;;;;;;;;;;17.30;78.70;;;;;;5002322;28;20198;-77
2023/07/27 02:56:48;;;;;;;;;;;17.30;78.80;;;;;;5002717;28;20434;-77
2023/07/27 02:59:15;;;;;;;;;;;17.30;78.80;;;;;;5003257;28;19937;-77
2023/07/27 03:01:41;;;;;;;;;;;17.30;78.80;;;;;;5002161;28;19934;-77
2023/07/27 03:04:08;;;;;;;;;;;17.30;78.80;;;;;;5003517;28;19934;-76
2023/07/27 03:06:35;;;;;;;;;;;17.30;78.80;;;;;;5002087;28;19925;-77
2023/07/27 03:09:02;;;;;;;;;;;17.20;78.90;;;;;;5002712;28;19937;-77
2023/07/27 03:11:28;;;;;;;;;;;17.20;78.90;;;;;;5001848;28;19934;-77
2023/07/27 03:13:56;;;;;;;;;;;17.20;79.00;;;;;;5003282;28;19933;-77
2023/07/27 03:16:23;;;;;;;;;;;17.20;79.10;;;;;;5001055;28;20039;-77
2023/07/27 03:18:49;;;;;;;;;;;17.20;79.10;;;;;;4998664;28;19940;-76
2023/07/27 03:21:16;;;;;;;;;;;17.20;79.10;;;;;;5005249;28;19936;-76
2023/07/27 03:23:42;;;;;;;;;;;17.20;79.20;;;;;;5003243;28;19929;-76
2023/07/27 03:26:10;;;;;;;;;;;17.10;79.10;;;;;;5002042;28;20031;-76
2023/07/27 03:28:36;;;;;;;;;;;17.10;79.10;;;;;;5001487;28;19929;-76
2023/07/27 03:31:13;;;;;;;;;;;17.10;79.20;;;;;;5003903;28;19929;-76
2023/07/27 03:33:39;;;;;;;;;;;17.10;79.30;;;;;;5007822;28;19929;-76
2023/07/27 03:36:06;;;;;;;;;;;17.10;79.30;;;;;;5004792;28;19941;-76
2023/07/27 03:38:32;;;;;;;;;;;17.10;79.40;;;;;;5009879;28;19929;-76
2023/07/27 03:40:59;;;;;;;;;;;17.10;79.40;;;;;;5007749;28;19936;-76
2023/07/27 03:43:25;;;;;;;;;;;17.10;79.50;;;;;;5005793;28;19937;-76
2023/07/27 03:45:52;;;;;;;;;;;17.00;79.50;;;;;;5005099;28;19929;-76
2023/07/27 03:48:20;;;;;;;;;;;17.10;79.60;;;;;;5007878;28;19929;-76
2023/07/27 03:50:47;;;;;;;;;;;17.00;79.50;;;;;;5001500;28;19937;-76
2023/07/27 03:53:13;;;;;;;;;;;17.00;79.60;;;;;;5000540;28;19936;-76
2023/07/27 03:55:40;;;;;;;;;;;17.00;79.60;;;;;;5000830;28;19929;-76
2023/07/27 03:58:07;;;;;;;;;;;17.00;79.70;;;;;;5003252;28;19933;-76
2023/07/27 04:00:33;;;;;;;;;;;17.00;79.80;;;;;;4997192;28;19942;-76
2023/07/27 04:03:00;;;;;;;;;;;17.00;79.80;;;;;;4989928;28;19929;-77
2023/07/27 04:05:30;;;;;;;;;;;17.00;79.90;;;;;;4988424;28;19929;-77
2023/07/27 04:07:56;;;;;;;;;;;16.90;79.90;;;;;;4984304;28;19934;-76
2023/07/27 04:10:24;;;;;;;;;;;16.90;80.00;;;;;;4986164;28;19930;-76
2023/07/27 04:12:51;;;;;;;;;;;16.90;80.00;;;;;;4988089;28;20004;-76
2023/07/27 04:15:17;;;;;;;;;;;16.90;80.00;;;;;;4987820;28;19934;-76
2023/07/27 04:17:44;;;;;;;;;;;16.90;80.10;;;;;;5002404;28;19992;-76
2023/07/27 04:20:11;;;;;;;;;;;16.90;80.10;;;;;;5006486;28;19929;-76
2023/07/27 04:22:39;;;;;;;;;;;16.90;80.20;;;;;;5005638;28;19933;-76
2023/07/27 04:25:06;;;;;;;;;;;16.90;80.20;;;;;;5004966;28;19992;-76
2023/07/27 04:27:32;;;;;;;;;;;16.90;80.30;;;;;;5000413;28;19929;-76
2023/07/27 04:29:59;;;;;;;;;;;16.90;80.30;;;;;;5004356;28;20323;-76
2023/07/27 04:32:26;;;;;;;;;;;16.90;80.40;;;;;;5004468;28;19929;-76
2023/07/27 04:34:52;;;;;;;;;;;16.90;80.50;;;;;;5006122;28;19949;-76
2023/07/27 04:37:20;;;;;;;;;;;16.80;80.40;;;;;;5006281;28;19929;-76
2023/07/27 04:39:48;;;;;;;;;;;16.90;80.50;;;;;;5008254;28;19930;-77
2023/07/27 04:42:15;;;;;;;;;;;16.80;80.50;;;;;;5005731;28;19933;-76
2023/07/27 04:44:41;;;;;;;;;;;16.90;80.60;;;;;;5007774;28;19937;-76
2023/07/27 04:47:08;;;;;;;;;;;16.80;80.60;;;;;;4988158;28;19930;-76
2023/07/27 04:49:34;;;;;;;;;;;16.80;80.70;;;;;;4986156;28;19957;-76
2023/07/27 04:52:01;;;;;;;;;;;16.80;80.80;;;;;;4985600;28;19934;-76
2023/07/27 04:54:27;;;;;;;;;;;16.80;80.90;;;;;;4988022;28;19941;-76
2023/07/27 04:56:55;;;;;;;;;;;16.80;80.90;;;;;;4989946;28;19935;-76
2023/07/27 04:59:22;;;;;;;;;;;16.80;81.00;;;;;;4989343;28;19936;-76
2023/07/27 05:01:48;;;;;;;;;;;16.80;81.10;;;;;;4980271;28;19997;-76
2023/07/27 05:04:15;;;;;;;;;;;16.80;81.20;;;;;;4990022;28;20304;-76
2023/07/27 05:06:42;;;;;;;;;;;16.80;81.30;;;;;;4989076;28;19934;-77
2023/07/27 05:09:08;;;;;;;;;;;16.80;81.40;;;;;;4992679;28;20403;-77
2023/07/27 05:11:35;;;;;;;;;;;16.80;81.50;;;;;;4989385;28;19965;-77
2023/07/27 05:14:03;;;;;;;;;;;16.80;81.60;;;;;;4991064;28;19933;-77
2023/07/27 05:16:30;;;;;;;;;;;16.80;81.70;;;;;;5002880;28;19936;-77
2023/07/27 05:18:57;;;;;;;;;;;16.80;81.80;;;;;;5008616;28;19925;-77
2023/07/27 05:21:24;;;;;;;;;;;16.80;81.80;;;;;;5006726;28;19934;-77
2023/07/27 05:23:50;;;;;;;;;;;16.80;82.00;;;;;;5008085;28;19936;-77
2023/07/27 05:26:17;;;;;;;;;;;16.80;82.00;;;;;;5006089;28;19929;-75
2023/07/27 05:28:45;;;;;;;;;;;16.80;82.10;;;;;;5007533;28;19943;-75
2023/07/27 05:31:13;;;;;;;;;;;16.80;82.20;;;;;;5003750;28;19929;-75
2023/07/27 05:33:39;;;;;;;;;;;16.80;82.30;;;;;;5005161;28;19929;-75
2023/07/27 05:36:06;;;;;;;;;;;16.70;82.30;;;;;;5003177;28;19936;-75
2023/07/27 05:38:33;;;;;;;;;;;16.80;82.40;;;;;;5006890;28;19929;-75
2023/07/27 05:41:00;;;;;;;;;;;16.80;82.60;;;;;;5003734;28;19933;-75
2023/07/27 05:43:26;;;;;;;;;;;16.80;83.30;;;;;;5004543;28;19930;-75
2023/07/27 05:45:53;;;;;;;;;;;16.80;82.60;;;;;;5001847;28;19929;-75
2023/07/27 05:48:20;;;;;;;;;;;16.80;82.60;;;;;;5006871;28;19933;-75
2023/07/27 05:50:47;;;;;;;;;;;16.80;82.70;;;;;;5003172;28;19926;-75
2023/07/27 05:53:14;;;;;;;;;;;16.80;82.80;;;;;;5003250;28;20379;-74
2023/07/27 05:55:41;;;;;;;;;;;16.80;82.80;;;;;;5000926;28;19937;-75
2023/07/27 05:58:07;;;;;;;;;;;16.80;82.90;;;;;;5002552;28;19938;-75
2023/07/27 06:00:34;;;;;;;;;;;16.80;82.90;;;;;;4999642;28;19933;-75
2023/07/27 06:03:00;;;;;;;;;;;16.80;83.00;;;;;;5001370;28;19971;-76
2023/07/27 06:05:28;;;;;;;;;;;16.80;83.70;;;;;;5005401;28;20023;-75
2023/07/27 06:07:55;;;;;;;;;;;16.90;84.40;;;;;;5005800;28;19930;-77
2023/07/27 06:10:21;;;;;;;;;;;16.80;84.50;;;;;;5002161;28;19968;-77
2023/07/27 06:12:48;;;;;;;;;;;16.90;84.60;;;;;;5002140;28;19930;-77
2023/07/27 06:15:14;;;;;;;;;;;16.90;84.40;;;;;;4999278;28;19933;-77
2023/07/27 06:17:41;;;;;;;;;;;16.90;84.20;;;;;;5004956;28;19930;-77
2023/07/27 06:20:08;;;;;;;;;;;16.90;84.10;;;;;;5001853;28;20007;-77
2023/07/27 06:22:36;;;;;;;;;;;16.90;84.00;;;;;;4999587;28;19934;-77
2023/07/27 06:25:03;;;;;;;;;;;16.90;83.90;;;;;;5003234;28;19933;-77
2023/07/27 06:27:29;;;;;;;;;;;16.80;83.70;;;;;;5003861;28;19979;-76
2023/07/27 06:29:56;;;;;;;;;;;16.90;83.60;;;;;;5003678;28;19936;-77
2023/07/27 06:32:22;;;;;;;;;;;16.90;83.60;;;;;;4984126;28;19937;-77
2023/07/27 06:34:49;;;;;;;;;;;16.90;83.50;;;;;;4984341;28;20200;-77
2023/07/27 06:37:16;;;;;;;;;;;16.90;83.50;;;;;;4983633;28;19926;-77
2023/07/27 06:39:43;;;;;;;;;;;16.90;83.50;;;;;;4983037;28;20052;-76
2023/07/27 06:42:10;;;;;;;;;;;17.00;83.40;;;;;;4982341;28;19934;-77
2023/07/27 06:44:37;;;;;;;;;;;16.90;83.30;;;;;;4985361;28;20404;-77
2023/07/27 06:47:03;;;;;;;;;;;16.90;83.30;;;;;;4998054;28;19980;-76
2023/07/27 06:49:30;;;;;;;;;;;17.10;86.30;;;;;;5000356;28;19937;-77
2023/07/27 06:51:57;;;;;;;;;;;17.10;86.80;;;;;;5000875;28;19936;-77
2023/07/27 06:54:23;;;;;;;;;;;17.20;87.10;;;;;;5000000;28;19930;-78
2023/07/27 06:56:51;;;;;;;;;;;17.20;87.50;;;;;;5002459;28;20295;-78
2023/07/27 06:59:17;;;;;;;;;;;17.20;87.60;;;;;;5002576;28;20277;-77
2023/07/27 07:01:44;;;;;;;;;;;17.30;87.60;;;;;;4999659;28;19937;-77
2023/07/27 07:04:11;;;;;;;;;;;17.30;87.60;;;;;;5003107;28;19930;-77
2023/07/27 07:06:39;;;;;;;;;;;17.30;87.40;;;;;;5004330;28;19929;-78
2023/07/27 07:09:05;;;;;;;;;;;17.30;87.30;;;;;;5006611;28;20284;-77
2023/07/27 07:11:32;;;;;;;;;;;17.40;87.20;;;;;;5005425;28;19930;-78
2023/07/27 07:14:00;;;;;;;;;;;17.30;87.00;;;;;;5005291;28;19940;-78
2023/07/27 07:16:27;;;;;;;;;;;17.40;86.90;;;;;;5001153;28;19941;-78
2023/07/27 07:18:54;;;;;;;;;;;17.50;86.90;;;;;;5000094;28;19934;-77
2023/07/27 07:21:20;;;;;;;;;;;17.50;86.70;;;;;;5004066;28;19934;-77
2023/07/27 07:23:47;;;;;;;;;;;17.50;86.60;;;;;;5001952;28;19995;-77
2023/07/27 07:26:14;;;;;;;;;;;17.50;86.60;;;;;;4999583;28;19937;-77
2023/07/27 07:28:40;;;;;;;;;;;17.50;86.50;;;;;;5005022;28;19937;-77
2023/07/27 07:31:08;;;;;;;;;;;17.60;86.60;;;;;;4999131;28;19930;-78
2023/07/27 07:33:35;;;;;;;;;;;17.50;86.50;;;;;;4995724;28;19933;-78
2023/07/27 07:36:02;;;;;;;;;;;17.60;86.60;;;;;;4991503;28;19934;-78
2023/07/27 07:38:29;;;;;;;;;;;17.60;86.50;;;;;;4983270;28;20078;-75
2023/07/27 07:40:56;;;;;;;;;;;17.60;86.50;;;;;;4982498;28;19936;-76
2023/07/27 07:43:23;;;;;;;;;;;17.60;86.50;;;;;;4983296;28;19934;-77
2023/07/27 07:45:49;;;;;;;;;;;17.70;86.60;;;;;;4987564;28;20018;-77
2023/07/27 07:48:17;;;;;;;;;;;17.60;86.40;;;;;;4997157;28;19929;-74
2023/07/27 07:50:44;;;;;;;;;;;17.70;86.50;;;;;;5004380;28;20023;-74
2023/07/27 07:53:10;;;;;;;;;;;17.70;86.50;;;;;;5002505;28;19934;-75
2023/07/27 07:55:37;;;;;;;;;;;17.70;86.40;;;;;;5003665;28;19929;-74
2023/07/27 07:58:04;;;;;;;;;;;17.70;86.40;;;;;;5004011;28;20024;-74
2023/07/27 08:00:30;;;;;;;;;;;17.70;86.40;;;;;;4999147;28;19929;-74
2023/07/27 08:02:57;;;;;;;;;;;17.70;86.40;;;;;;5003547;28;19929;-74
2023/07/27 08:05:25;;;;;;;;;;;17.70;86.50;;;;;;5004577;28;19930;-74
2023/07/27 08:07:52;;;;;;;;;;;17.80;86.60;;;;;;5005336;28;19929;-74
2023/07/27 08:10:19;;;;;;;;;;;17.80;86.50;;;;;;5005021;28;19983;-74
2023/07/27 08:12:49;;;;;;;;;;;17.80;86.60;;;;;;5002274;28;19930;-74
2023/07/27 08:15:16;;;;;;;;;;;17.80;86.60;;;;;;5002900;28;20315;-74
2023/07/27 08:17:42;;;;;;;;;;;17.80;86.50;;;;;;5002935;28;19933;-74
2023/07/27 08:20:09;;;;;;;;;;;17.90;86.50;;;;;;5000600;28;19933;-74
2023/07/27 08:22:38;;;;;;;;;;;17.90;86.60;;;;;;4998401;28;19933;-72
2023/07/27 08:25:05;;;;;;;;;;;17.80;86.50;;;;;;5003456;28;20410;-74
2023/07/27 08:27:33;;;;;;;;;;;17.90;86.60;;;;;;5004342;28;19929;-73
2023/07/27 08:29:59;;;;;;;;;;;17.90;86.60;;;;;;5003802;28;19937;-74
2023/07/27 08:32:26;;;;;;;;;;;17.90;86.60;;;;;;5008293;28;19933;-74
2023/07/27 08:34:53;;;;;;;;;;;17.90;86.60;;;;;;5009121;28;19929;-74
2023/07/27 08:37:19;;;;;;;;;;;17.90;86.60;;;;;;5005313;28;19929;-74
2023/07/27 08:39:48;;;;;;;;;;;17.90;86.60;;;;;;5006678;28;19972;-73
2023/07/27 08:42:15;;;;;;;;;;;17.90;86.60;;;;;;5007458;28;19937;-74
2023/07/27 08:44:43;;;;;;;;;;;18.00;86.60;;;;;;5003045;28;19933;-74
2023/07/27 08:47:10;;;;;;;;;;;17.90;86.60;;;;;;5007654;28;19934;-74
2023/07/27 08:49:37;;;;;;;;;;;18.00;86.60;;;;;;5004860;28;19971;-74
2023/07/27 08:52:04;;;;;;;;;;;18.00;86.70;;;;;;5005252;28;19952;-74
2023/07/27 08:54:31;;;;;;;;;;;18.00;86.70;;;;;;5001260;28;19930;-74
2023/07/27 08:56:58;;;;;;;;;;;17.90;86.80;;;;;;5010213;28;19936;-74
2023/07/27 08:59:25;;;;;;;;;;;18.00;86.80;;;;;;5000346;28;20427;-74
2023/07/27 09:01:51;;;;;;;;;;;18.00;86.80;;;;;;5006306;28;19959;-74
2023/07/27 09:04:18;;;;;;;;;;;18.00;86.80;;;;;;5004389;28;19937;-74
2023/07/27 09:06:45;;;;;;;;;;;18.00;86.90;;;;;;5009798;28;19944;-74
2023/07/27 09:09:13;;;;;;;;;;;18.00;87.00;;;;;;5008942;28;19937;-74
2023/07/27 09:11:39;;;;;;;;;;;18.00;87.00;;;;;;5004439;28;19933;-71
2023/07/27 09:14:07;;;;;;;;;;;18.00;87.10;;;;;;5006814;28;19977;-74
2023/07/27 09:16:34;;;;;;;;;;;18.00;87.10;;;;;;5008830;28;19934;-74
2023/07/27 09:19:01;;;;;;;;;;;18.00;87.20;;;;;;5006966;28;19933;-74
2023/07/27 09:21:28;;;;;;;;;;;18.00;87.10;;;;;;5010957;28;19930;-74
2023/07/27 09:23:57;;;;;;;;;;;18.00;87.20;;;;;;5007489;28;19936;-74
2023/07/27 09:26:24;;;;;;;;;;;18.00;87.20;;;;;;5009958;28;19929;-74
2023/07/27 09:28:51;;;;;;;;;;;18.00;87.20;;;;;;5004241;28;19959;-74
2023/07/27 09:31:18;;;;;;;;;;;18.00;87.20;;;;;;4992414;28;19934;-74
2023/07/27 09:33:45;;;;;;;;;;;18.00;87.20;;;;;;4985957;28;19966;-74
2023/07/27 09:36:11;;;;;;;;;;;18.10;87.20;;;;;;4985042;28;19934;-75
2023/07/27 09:38:39;;;;;;;;;;;18.10;87.20;;;;;;4985149;28;19942;-74
2023/07/27 09:41:09;;;;;;;;;;;18.10;87.10;;;;;;4982690;28;19930;-74
2023/07/27 09:43:38;;;;;;;;;;;18.10;87.10;;;;;;4984908;28;19933;-74
2023/07/27 09:46:04;;;;;;;;;;;18.10;87.00;;;;;;4983131;28;19938;-74
2023/07/27 09:48:33;;;;;;;;;;;18.20;86.90;;;;;;4983229;28;19938;-74
2023/07/27 09:50:59;;;;;;;;;;;18.20;86.80;;;;;;4984597;28;19933;-74
2023/07/27 09:53:29;;;;;;;;;;;18.20;86.70;;;;;;4976960;28;19934;-74
2023/07/27 09:55:57;;;;;;;;;;;18.20;86.40;;;;;;4984974;28;19936;-74
2023/07/27 09:58:23;;;;;;;;;;;18.30;86.20;;;;;;4982317;28;19937;-74
2023/07/27 10:00:50;;;;;;;;;;;18.30;86.10;;;;;;4985090;28;19930;-74
2023/07/27 10:03:16;;;;;;;;;;;18.30;85.90;;;;;;4984336;28;20016;-73
2023/07/27 10:05:44;;;;;;;;;;;18.30;85.80;;;;;;4981052;28;19933;-72
2023/07/27 10:08:11;;;;;;;;;;;18.30;85.70;;;;;;4984082;28;19945;-74
2023/07/27 10:10:42;;;;;;;;;;;18.30;85.70;;;;;;4981973;28;21477;-74
2023/07/27 10:13:11;;;;;;;;;;;18.30;85.50;;;;;;4981813;28;19930;-75
2023/07/27 10:15:42;;;;;;;;;;;18.40;85.40;;;;;;4983200;28;19936;-75
2023/07/27 10:18:08;;;;;;;;;;;18.40;85.20;;;;;;4985044;28;20017;-75
2023/07/27 10:20:35;;;;;;;;;;;18.40;84.90;;;;;;4986238;28;19933;-74
2023/07/27 10:23:13;;;;;;;;;;;18.40;84.90;;;;;;4984053;28;19940;-73
2023/07/27 10:25:59;;;;;;;;;;;18.50;84.80;;;;;;4986895;28;19934;-74
2023/07/27 10:28:29;;;;;;;;;;;18.50;84.20;;;;;;4991913;28;19925;-74
2023/07/27 10:31:11;;;;;;;;;;;18.50;83.70;;;;;;4984817;28;19933;-74
2023/07/27 10:33:37;;;;;;;;;;;18.50;83.50;;;;;;4985208;28;20403;-74
2023/07/27 10:36:04;;;;;;;;;;;18.60;83.40;;;;;;4985085;28;19980;-75
2023/07/27 10:38:33;;;;;;;;;;;18.60;83.20;;;;;;4980580;28;19930;-74
2023/07/27 10:41:13;;;;;;;;;;;18.60;83.00;;;;;;4985103;28;20411;-75
2023/07/27 10:43:54;;;;;;;;;;;18.60;82.70;;;;;;4984922;28;19969;-74
2023/07/27 10:46:22;;;;;;;;;;;18.70;82.80;;;;;;4980474;28;19930;-74
2023/07/27 10:48:56;;;;;;;;;;;18.70;82.40;;;;;;4984289;28;19988;-74
2023/07/27 10:51:25;;;;;;;;;;;18.80;82.90;;;;;;4980779;28;19934;-75
2023/07/27 10:53:53;;;;;;;;;;;18.90;82.20;;;;;;4981445;28;19941;-74
2023/07/27 10:56:20;;;;;;;;;;;18.90;82.10;;;;;;4983023;28;19930;-75
2023/07/27 10:58:47;;;;;;;;;;;18.90;82.00;;;;;;4982455;28;19937;-74
2023/07/27 11:01:14;;;;;;;;;;;18.90;81.80;;;;;;4981132;28;19934;-75
2023/07/27 11:03:41;;;;;;;;;;;19.00;81.70;;;;;;4985997;28;19930;-74
2023/07/27 11:06:08;;;;;;;;;;;19.00;81.70;;;;;;4983222;28;19952;-72
2023/07/27 11:08:36;;;;;;;;;;;19.00;81.70;;;;;;4979869;28;19930;-75
2023/07/27 11:11:14;;;;;;;;;;;19.00;81.80;;;;;;4983546;28;19937;-74
2023/07/27 11:13:41;;;;;;;;;;;19.00;81.80;;;;;;4984440;28;20295;-74
2023/07/27 11:16:07;;;;;;;;;;;19.00;81.80;;;;;;4984267;28;19930;-75
2023/07/27 11:18:34;;;;;;;;;;;19.10;82.00;;;;;;4989282;28;19937;-75
2023/07/27 11:21:02;;;;;;;;;;;19.10;82.00;;;;;;4986842;28;19929;-74
2023/07/27 11:23:28;;;;;;;;;;;19.10;82.00;;;;;;4987523;28;19937;-73
2023/07/27 11:25:55;;;;;;;;;;;19.10;82.00;;;;;;4983304;28;19933;-75
2023/07/27 11:28:24;;;;;;;;;;;19.10;82.00;;;;;;4976307;28;19938;-74
2023/07/27 11:30:52;;;;;;;;;;;19.10;82.20;;;;;;4980485;28;19930;-75
2023/07/27 11:33:20;;;;;;;;;;;19.10;82.30;;;;;;4985214;28;19929;-72
2023/07/27 11:35:47;;;;;;;;;;;19.10;82.40;;;;;;4980802;28;20009;-72
2023/07/27 11:38:14;;;;;;;;;;;19.10;82.50;;;;;;4986204;28;19930;-72
2023/07/27 11:40:44;;;;;;;;;;;19.20;82.60;;;;;;4983854;28;19930;-74
2023/07/27 11:43:10;;;;;;;;;;;19.20;82.60;;;;;;4982083;28;19929;-75
2023/07/27 11:45:40;;;;;;;;;;;19.20;82.80;;;;;;4978695;28;19941;-74
2023/07/27 11:48:07;;;;;;;;;;;19.20;82.90;;;;;;4984007;28;20002;-75
2023/07/27 11:50:35;;;;;;;;;;;19.20;83.00;;;;;;4983767;28;19965;-75
2023/07/27 11:53:03;;;;;;;;;;;19.20;83.00;;;;;;4978258;28;19937;-75
2023/07/27 11:55:31;;;;;;;;;;;19.20;83.60;;;;;;4984160;28;20013;-71
2023/07/27 11:57:58;;;;;;;;;;;19.20;84.00;;;;;;4976851;28;19938;-76
2023/07/27 12:00:25;;;;;;;;;;;19.20;84.10;;;;;;4974017;28;19995;-78
2023/07/27 12:02:53;;;;;;;;;;;19.20;84.00;;;;;;4974308;28;19930;-76
2023/07/27 12:05:22;;;;;;;;;;;19.20;84.10;;;;;;4980413;28;19936;-76
2023/07/27 12:07:50;;;;;;;;;;;19.20;84.10;;;;;;4970592;28;19930;-74
2023/07/27 12:10:17;;;;;;;;;;;19.20;84.20;;;;;;4974849;28;19985;-76
2023/07/27 12:12:48;;;;;;;;;;;19.20;84.30;;;;;;4981299;28;19930;-72
2023/07/27 12:15:23;;;;;;;;;;;19.20;84.40;;;;;;4977463;28;19934;-76
2023/07/27 12:17:54;;;;;;;;;;;19.20;84.60;;;;;;4975435;28;20396;-76
2023/07/27 12:20:20;;;;;;;;;;;19.20;84.60;;;;;;4979361;28;20478;-74
2023/07/27 12:22:47;;;;;;;;;;;19.20;84.60;;;;;;4982615;28;19962;-73
2023/07/27 12:25:14;;;;;;;;;;;19.20;84.70;;;;;;4984729;28;20172;-73
2023/07/27 12:27:40;;;;;;;;;;;19.20;84.70;;;;;;4985236;28;19929;-73
2023/07/27 12:30:07;;;;;;;;;;;19.30;84.90;;;;;;4982791;28;19980;-72
2023/07/27 12:32:34;;;;;;;;;;;19.30;85.00;;;;;;4978258;28;20032;-74
2023/07/27 12:35:02;;;;;;;;;;;19.30;85.00;;;;;;4981625;28;19930;-73
2023/07/27 12:37:29;;;;;;;;;;;19.30;85.10;;;;;;4984104;28;19933;-76
2023/07/27 12:39:55;;;;;;;;;;;19.40;85.20;;;;;;4979870;28;19941;-76
2023/07/27 12:42:22;;;;;;;;;;;19.40;85.30;;;;;;4981373;28;19930;-74
2023/07/27 12:44:48;;;;;;;;;;;19.40;85.40;;;;;;4984327;28;19933;-75
2023/07/27 12:47:15;;;;;;;;;;;19.40;85.80;;;;;;4981048;28;19952;-75
2023/07/27 12:49:42;;;;;;;;;;;19.40;86.00;;;;;;4982244;28;20343;-76
2023/07/27 12:52:11;;;;;;;;;;;19.40;86.50;;;;;;4982757;28;20414;-75
2023/07/27 12:54:37;;;;;;;;;;;19.40;86.50;;;;;;4983045;28;19930;-75
2023/07/27 12:57:04;;;;;;;;;;;19.40;86.20;;;;;;4979673;28;19934;-75
2023/07/27 12:59:30;;;;;;;;;;;19.50;86.20;;;;;;4984435;28;19930;-74
2023/07/27 13:01:57;;;;;;;;;;;19.50;87.10;;;;;;4975199;28;20362;-74
2023/07/27 13:04:24;;;;;;;;;;;19.50;86.70;;;;;;4980446;28;20672;-74
2023/07/27 13:06:50;;;;;;;;;;;19.50;86.30;;;;;;4981433;28;19937;-74
2023/07/27 13:09:19;;;;;;;;;;;19.50;87.00;;;;;;4986352;28;20430;-74
2023/07/27 13:11:46;;;;;;;;;;;19.50;86.90;;;;;;4984292;28;20296;-72
2023/07/27 13:14:13;;;;;;;;;;;19.60;86.60;;;;;;4981352;28;20404;-75
2023/07/27 13:16:39;;;;;;;;;;;19.60;86.30;;;;;;4983444;28;19937;-74
2023/07/27 13:19:06;;;;;;;;;;;19.60;86.20;;;;;;4977743;28;19933;-74
2023/07/27 13:21:32;;;;;;;;;;;19.60;86.20;;;;;;4974603;28;20319;-75
2023/07/27 13:23:59;;;;;;;;;;;19.60;86.20;;;;;;4977826;28;19934;-73
2023/07/27 13:26:28;;;;;;;;;;;19.60;86.20;;;;;;4983524;28;19937;-74
2023/07/27 13:28:54;;;;;;;;;;;19.60;86.10;;;;;;4979622;28;19940;-72
2023/07/27 13:31:22;;;;;;;;;;;19.60;86.20;;;;;;4980864;28;19937;-72
2023/07/27 13:33:49;;;;;;;;;;;19.70;86.30;;;;;;4983500;28;19946;-75
2023/07/27 13:36:15;;;;;;;;;;;19.70;87.20;;;;;;4980425;28;19930;-73
2023/07/27 13:38:42;;;;;;;;;;;19.70;87.80;;;;;;4982643;28;19937;-73
2023/07/27 13:41:09;;;;;;;;;;;19.70;88.00;;;;;;4984215;28;20281;-72
2023/07/27 13:43:36;;;;;;;;;;;19.70;88.10;;;;;;4982263;28;20419;-73
2023/07/27 13:46:03;;;;;;;;;;;19.80;87.90;;;;;;4983096;28;19931;-72
2023/07/27 13:48:29;;;;;;;;;;;19.80;87.80;;;;;;4982368;28;19956;-74
2023/07/27 13:50:56;;;;;;;;;;;19.80;87.60;;;;;;4982123;28;19930;-74
2023/07/27 13:53:23;;;;;;;;;;;19.80;87.30;;;;;;4978935;28;19930;-73
2023/07/27 13:55:50;;;;;;;;;;;19.80;87.90;;;;;;4977173;28;20423;-73
2023/07/27 13:58:16;;;;;;;;;;;19.80;88.60;;;;;;4978854;28;20021;-74
2023/07/27 14:00:44;;;;;;;;;;;19.90;88.50;;;;;;4979085;28;19930;-73
2023/07/27 14:03:11;;;;;;;;;;;19.90;88.30;;;;;;4982944;28;20352;-73
2023/07/27 14:05:37;;;;;;;;;;;19.90;88.10;;;;;;4984211;28;19930;-74
2023/07/27 14:08:04;;;;;;;;;;;19.90;87.90;;;;;;4983615;28;20392;-72
2023/07/27 14:10:31;;;;;;;;;;;19.90;87.80;;;;;;4981227;28;19988;-75
2023/07/27 14:12:57;;;;;;;;;;;19.90;87.90;;;;;;4980031;28;20467;-73
2023/07/27 14:15:24;;;;;;;;;;;19.90;87.80;;;;;;4983403;28;19934;-72
2023/07/27 14:17:52;;;;;;;;;;;19.90;88.00;;;;;;4976151;28;19936;-74